Time;durP1;ratioP1;P1;durP2;ratioP2;P2;SDS_P1;SDS_P2;PMS_P1;PMS_P2;Temp;Humidity;BMP_temperature;BMP_pressure;BME280_temperature;BME280_humidity;BME280_pressure;Samples;Min_cycle;Max_cycle;Signal;HPM_P1;HPM_P2
2022/07/13 00:01:35;;;;;;;1.25;0.90;;;;;;;24.85;46.42;100996.31;5040211;28;20036;-47
2022/07/13 00:04:02;;;;;;;2.10;1.10;;;;;;;24.57;47.04;101003.56;5052573;28;20029;-47
2022/07/13 00:06:28;;;;;;;2.55;1.10;;;;;;;24.80;47.29;100999.94;5050191;28;20473;-48
2022/07/13 00:08:54;;;;;;;1.48;1.02;;;;;;;24.52;46.67;101006.38;5052939;28;20021;-48
2022/07/13 00:11:20;;;;;;;1.05;0.90;;;;;;;24.56;46.12;101010.16;5052812;28;20021;-47
2022/07/13 00:13:46;;;;;;;1.73;1.05;;;;;;;24.37;47.18;100997.25;5051202;28;20041;-47
2022/07/13 00:16:13;;;;;;;1.17;0.82;;;;;;;24.39;46.83;100994.25;5052719;28;20075;-46
2022/07/13 00:18:39;;;;;;;2.58;1.20;;;;;;;24.22;47.16;101001.00;5052780;28;20035;-47
2022/07/13 00:21:06;;;;;;;1.15;0.70;;;;;;;23.91;48.10;101000.56;5033749;28;20098;-48
2022/07/13 00:23:32;;;;;;;2.08;1.20;;;;;;;23.69;48.53;100990.16;5045447;28;20119;-48
2022/07/13 00:25:58;;;;;;;2.70;1.80;;;;;;;23.61;49.37;100996.22;5038898;28;20446;-48
2022/07/13 00:28:25;;;;;;;1.73;1.45;;;;;;;23.20;49.85;101003.97;5032447;28;20091;-44
2022/07/13 00:30:51;;;;;;;2.08;1.33;;;;;;;23.09;50.67;101000.53;5032628;28;20035;-48
2022/07/13 00:33:17;;;;;;;2.40;1.15;;;;;;;23.05;51.19;101002.22;5039467;28;20032;-48
2022/07/13 00:35:44;;;;;;;2.45;1.20;;;;;;;22.91;51.29;100995.75;5043304;28;20037;-46
2022/07/13 00:38:10;;;;;;;2.35;1.10;;;;;;;23.00;51.11;100987.78;5032136;28;20549;-45
2022/07/13 00:40:36;;;;;;;1.98;1.40;;;;;;;22.65;51.52;100981.44;5032406;28;20116;-43
2022/07/13 00:43:02;;;;;;;1.35;1.08;;;;;;;22.44;52.03;100988.16;5040513;28;20025;-46
2022/07/13 00:45:29;;;;;;;2.00;1.30;;;;;;;22.39;52.33;100983.53;5031644;28;20130;-44
2022/07/13 00:47:57;;;;;;;3.20;1.10;;;;;;;22.27;52.53;100977.59;5032149;28;20017;-46
2022/07/13 00:50:23;;;;;;;1.85;1.20;;;;;;;22.40;53.31;100979.69;5031956;28;20096;-49
2022/07/13 00:52:50;;;;;;;2.95;1.08;;;;;;;22.45;52.71;100967.97;5031861;28;20036;-47
2022/07/13 00:55:17;;;;;;;3.00;1.50;;;;;;;22.38;52.77;100980.00;5031502;28;20112;-48
2022/07/13 00:57:43;;;;;;;1.85;1.08;;;;;;;22.21;52.93;100968.63;5032023;28;20021;-46
2022/07/13 01:00:13;;;;;;;3.00;1.10;;;;;;;22.21;53.42;100973.25;5030294;28;20056;-48
2022/07/13 01:02:46;;;;;;;3.17;1.33;;;;;;;22.50;53.26;100973.38;5031742;28;20401;-48
2022/07/13 01:05:14;;;;;;;4.97;1.38;;;;;;;22.56;52.33;100966.78;5031779;28;20116;-49
2022/07/13 01:07:41;;;;;;;2.20;1.40;;;;;;;22.44;52.53;100978.06;5032471;28;20536;-47
2022/07/13 01:10:10;;;;;;;2.97;1.52;;;;;;;22.30;52.62;100977.03;5032157;28;20021;-49
2022/07/13 01:12:37;;;;;;;2.03;1.23;;;;;;;21.90;54.21;100962.47;5032191;28;20398;-48
2022/07/13 01:15:05;;;;;;;2.85;1.35;;;;;;;22.19;54.17;100970.00;5031913;28;20384;-47
2022/07/13 01:17:34;;;;;;;2.33;1.30;;;;;;;22.26;54.08;100967.78;5044550;28;20068;-49
2022/07/13 01:20:01;;;;;;;3.38;1.48;;;;;;;22.37;53.50;100967.44;5051042;28;20021;-47
2022/07/13 01:22:41;;;;;;;1.67;1.25;;;;;;;22.38;54.08;100971.81;5032636;28;20381;-48
2022/07/13 01:25:08;;;;;;;3.22;1.35;;;;;;;22.43;53.25;100964.69;5031944;28;20032;-47
2022/07/13 01:27:38;;;;;;;3.38;1.35;;;;;;;22.03;55.32;100964.56;5041383;28;20087;-48
2022/07/13 01:30:05;;;;;;;3.95;1.58;;;;;;;21.95;54.52;100965.16;5052390;28;20025;-48
2022/07/13 01:32:46;;;;;;;3.47;1.38;;;;;;;22.09;54.99;100968.09;5045425;28;20037;-48
2022/07/13 01:35:13;;;;;;;3.72;1.38;;;;;;;22.04;55.19;100965.38;5051900;28;20144;-50
2022/07/13 01:37:41;;;;;;;2.25;1.42;;;;;;;22.10;54.90;100962.41;5032798;28;20473;-45
2022/07/13 01:40:08;;;;;;;2.85;1.40;;;;;;;22.08;55.25;100963.75;5029908;28;20494;-49
2022/07/13 01:42:49;;;;;;;4.78;1.45;;;;;;;22.06;54.69;100961.31;5031785;28;20026;-48
2022/07/13 01:45:17;;;;;;;2.78;1.40;;;;;;;22.10;54.48;100964.34;5031786;28;20025;-48
2022/07/13 01:47:45;;;;;;;3.15;1.30;;;;;;;22.25;54.39;100966.97;5035535;28;20032;-48
2022/07/13 01:50:13;;;;;;;1.52;1.23;;;;;;;22.19;55.41;100959.91;5051885;28;20017;-49
2022/07/13 01:52:40;;;;;;;4.28;1.35;;;;;;;22.17;54.16;100958.56;5051569;28;20458;-48
2022/07/13 01:55:09;;;;;;;2.45;1.50;;;;;;;21.79;54.51;100971.78;5044570;28;20127;-45
2022/07/13 01:57:35;;;;;;;3.45;1.55;;;;;;;21.93;54.88;100972.81;5025848;28;20067;-46
2022/07/13 02:00:19;;;;;;;3.63;1.33;;;;;;;22.29;54.37;100970.75;5036497;28;20473;-48
2022/07/13 02:02:47;;;;;;;2.63;1.40;;;;;;;22.32;53.57;100970.22;5030012;28;20143;-46
2022/07/13 02:05:14;;;;;;;1.55;1.30;;;;;;;22.37;53.02;100972.88;5037974;28;20473;-49
2022/07/13 02:07:41;;;;;;;3.78;1.33;;;;;;;22.61;53.11;100972.22;5012752;28;20538;-48
2022/07/13 02:10:09;;;;;;;2.22;1.27;;;;;;;22.95;51.81;100975.00;5026924;28;20060;-48
2022/07/13 02:12:35;;;;;;;1.58;1.20;;;;;;;22.96;51.43;100973.88;5021256;28;20052;-47
2022/07/13 02:15:02;;;;;;;2.47;1.00;;;;;;;23.32;50.56;100971.66;5037128;28;20387;-49
2022/07/13 02:17:28;;;;;;;2.78;1.63;;;;;;;23.24;50.35;100969.53;5034927;28;20029;-46
2022/07/13 02:19:56;;;;;;;3.28;1.38;;;;;;;23.77;50.00;100974.22;5033258;28;20017;-49
2022/07/13 02:22:22;;;;;;;1.17;0.93;;;;;;;23.97;49.02;100977.50;5041605;28;20033;-48
2022/07/13 02:24:48;;;;;;;2.75;1.00;;;;;;;23.89;49.15;100977.38;5040897;28;20116;-48
2022/07/13 02:27:14;;;;;;;2.83;1.20;;;;;;;24.07;48.22;100981.25;5025028;28;20527;-47
2022/07/13 02:29:41;;;;;;;3.00;1.30;;;;;;;24.30;47.39;100974.09;5025998;28;20029;-46
2022/07/13 02:32:09;;;;;;;1.88;1.20;;;;;;;24.25;47.28;100972.25;5052397;28;20048;-48
2022/07/13 02:34:36;;;;;;;2.80;1.23;;;;;;;24.27;47.22;100974.69;5053110;28;20067;-47
2022/07/13 02:37:02;;;;;;;2.45;1.20;;;;;;;24.16;47.43;100984.97;5037689;28;20029;-49
2022/07/13 02:39:28;;;;;;;1.58;1.02;;;;;;;23.93;47.94;100987.44;5019678;28;20018;-48
2022/07/13 02:41:54;;;;;;;2.95;1.33;;;;;;;24.13;47.80;100982.81;5028123;28;20061;-48
2022/07/13 02:44:20;;;;;;;2.28;1.33;;;;;;;23.98;47.24;100994.72;5035513;28;20057;-48
2022/07/13 02:46:47;;;;;;;3.10;1.30;;;;;;;24.22;46.59;100986.50;5035718;28;20027;-47
2022/07/13 02:49:13;;;;;;;2.85;1.02;;;;;;;24.13;47.11;100986.34;5015090;28;20032;-47
2022/07/13 02:51:39;;;;;;;3.10;1.27;;;;;;;23.86;47.77;100986.94;5032792;28;20032;-48
2022/07/13 02:54:05;;;;;;;1.50;1.05;;;;;;;24.05;47.25;100988.94;5034727;28;20541;-45
2022/07/13 02:56:31;;;;;;;2.10;0.90;;;;;;;23.90;47.39;100993.47;5034764;28;20033;-49
2022/07/13 02:58:58;;;;;;;3.92;1.23;;;;;;;23.66;47.69;100987.19;5022689;28;20028;-49
2022/07/13 03:01:24;;;;;;;2.63;1.00;;;;;;;23.54;47.88;100992.19;5042854;28;20037;-49
2022/07/13 03:03:51;;;;;;;1.45;1.00;;;;;;;23.38;48.40;100988.81;5036893;28;20044;-49
2022/07/13 03:06:17;;;;;;;3.97;1.10;;;;;;;22.69;50.15;100998.06;5030005;28;20045;-47
2022/07/13 03:08:43;;;;;;;3.13;1.30;;;;;;;21.93;51.84;100994.63;5022260;28;20441;-48
2022/07/13 03:11:09;;;;;;;2.78;1.40;;;;;;;21.82;52.30;100993.84;5040131;28;20025;-47
2022/07/13 03:13:35;;;;;;;1.63;1.15;;;;;;;21.45;53.45;100996.09;5054315;28;20033;-49
2022/07/13 03:16:02;;;;;;;3.10;1.30;;;;;;;21.21;54.35;101004.81;5054237;28;20029;-47
2022/07/13 03:18:28;;;;;;;2.22;1.08;;;;;;;20.84;54.77;101005.06;5049973;28;20021;-47
2022/07/13 03:20:54;;;;;;;2.33;1.23;;;;;;;20.65;55.85;101002.03;5034396;28;20048;-46
2022/07/13 03:23:20;;;;;;;3.13;1.30;;;;;;;20.34;56.79;101003.00;5054139;28;20029;-48
2022/07/13 03:25:46;;;;;;;1.98;1.13;;;;;;;20.10;57.20;101011.63;5045234;28;20048;-47
2022/07/13 03:28:13;;;;;;;5.32;1.50;;;;;;;19.78;58.39;101017.97;5020146;28;20033;-45
2022/07/13 03:30:39;;;;;;;2.95;1.58;;;;;;;19.16;61.04;101015.88;5031194;28;20482;-44
2022/07/13 03:33:05;;;;;;;2.08;1.25;;;;;;;19.13;60.77;101018.28;5044011;28;20278;-48
2022/07/13 03:35:31;;;;;;;2.25;1.30;;;;;;;19.24;60.38;101020.00;5032316;28;20512;-48
2022/07/13 03:37:57;;;;;;;3.50;1.63;;;;;;;18.96;61.12;101021.94;5045547;28;20029;-47
2022/07/13 03:40:24;;;;;;;1.50;1.10;;;;;;;18.69;62.22;101030.09;5026068;28;20029;-49
2022/07/13 03:42:50;;;;;;;1.58;1.08;;;;;;;18.77;62.37;101022.56;5033957;28;20025;-48
2022/07/13 03:45:17;;;;;;;1.60;1.20;;;;;;;18.75;62.34;101027.44;5031883;28;20100;-47
2022/07/13 03:47:43;;;;;;;2.35;1.10;;;;;;;18.53;63.16;101035.56;5033562;28;20500;-47
2022/07/13 03:50:09;;;;;;;2.00;1.00;;;;;;;18.49;63.16;101035.28;5015761;28;20041;-44
2022/07/13 03:52:35;;;;;;;1.70;1.30;;;;;;;18.43;63.90;101036.25;5013696;28;20107;-45
2022/07/13 03:55:01;;;;;;;2.38;1.20;;;;;;;18.47;63.64;101037.41;5030959;28;20045;-47
2022/07/13 03:57:28;;;;;;;2.20;1.25;;;;;;;18.45;63.82;101040.38;5032143;28;20029;-46
2022/07/13 03:59:54;;;;;;;1.58;1.15;;;;;;;18.24;64.60;101045.78;5032988;28;20033;-47
2022/07/13 04:02:20;;;;;;;2.55;1.13;;;;;;;18.42;64.10;101046.28;5031370;28;20017;-45
2022/07/13 04:04:46;;;;;;;1.27;0.80;;;;;;;18.32;64.80;101050.75;5029851;28;20426;-46
2022/07/13 04:07:13;;;;;;;4.40;1.20;;;;;;;18.37;64.73;101056.25;5033308;28;20512;-48
2022/07/13 04:09:39;;;;;;;2.22;1.23;;;;;;;18.30;65.30;101055.63;5030733;28;20496;-48
2022/07/13 04:12:05;;;;;;;2.55;1.30;;;;;;;18.02;66.25;101056.59;5033375;28;20028;-46
2022/07/13 04:14:32;;;;;;;2.28;1.20;;;;;;;18.03;66.01;101061.78;5031965;28;20363;-46
2022/07/13 04:16:58;;;;;;;1.00;0.90;;;;;;;18.04;66.33;101052.56;5033200;28;20030;-48
2022/07/13 04:19:24;;;;;;;1.52;0.93;;;;;;;18.11;65.28;101060.53;5032261;28;20027;-46
2022/07/13 04:21:51;;;;;;;2.20;1.33;;;;;;;17.94;66.00;101060.56;5032557;28;20470;-47
2022/07/13 04:24:17;;;;;;;2.25;1.20;;;;;;;17.81;66.54;101067.16;5030090;28;20037;-48
2022/07/13 04:26:43;;;;;;;2.17;1.08;;;;;;;17.80;66.52;101067.41;5032858;28;20536;-48
2022/07/13 04:29:09;;;;;;;2.40;1.08;;;;;;;17.66;67.34;101064.19;5031273;28;20029;-47
2022/07/13 04:31:36;;;;;;;1.17;1.08;;;;;;;17.68;66.72;101072.88;5032991;28;20017;-47
2022/07/13 04:34:02;;;;;;;0.88;0.88;;;;;;;17.77;66.39;101078.75;5031074;28;20040;-46
2022/07/13 04:36:28;;;;;;;1.85;1.13;;;;;;;17.56;66.94;101078.38;5032925;28;20033;-47
2022/07/13 04:38:54;;;;;;;2.15;1.15;;;;;;;17.53;67.30;101084.28;5030050;28;20057;-48
2022/07/13 04:41:20;;;;;;;0.82;0.75;;;;;;;17.69;66.79;101082.63;5030838;28;20470;-48
2022/07/13 04:43:46;;;;;;;1.90;1.10;;;;;;;17.57;67.20;101088.13;5031157;28;20033;-48
2022/07/13 04:46:13;;;;;;;1.63;1.05;;;;;;;17.49;67.10;101091.28;5032403;28;20018;-47
2022/07/13 04:48:39;;;;;;;2.33;1.00;;;;;;;17.46;67.18;101094.44;5031782;28;20048;-47
2022/07/13 04:51:05;;;;;;;1.65;1.02;;;;;;;17.63;66.97;101091.75;5032994;28;20026;-48
2022/07/13 04:53:32;;;;;;;2.08;1.00;;;;;;;17.42;67.45;101096.00;5031193;28;20079;-46
2022/07/13 04:55:58;;;;;;;1.77;1.00;;;;;;;17.35;68.20;101107.00;5032017;28;20033;-48
2022/07/13 04:58:24;;;;;;;2.92;1.00;;;;;;;17.47;68.04;101103.38;5030938;28;20029;-46
2022/07/13 05:00:50;;;;;;;1.10;0.80;;;;;;;17.37;68.42;101107.56;5031300;28;20082;-47
2022/07/13 05:03:16;;;;;;;1.30;0.80;;;;;;;17.31;68.94;101107.72;5030788;28;20037;-46
2022/07/13 05:05:43;;;;;;;1.45;0.82;;;;;;;17.33;68.97;101109.13;5031903;28;20383;-46
2022/07/13 05:08:09;;;;;;;1.95;1.00;;;;;;;17.26;68.97;101111.16;5029515;28;20025;-46
2022/07/13 05:10:35;;;;;;;1.77;0.63;;;;;;;17.30;68.77;101125.84;5032013;28;20061;-45
2022/07/13 05:13:01;;;;;;;3.63;1.05;;;;;;;17.28;68.81;101129.88;5030922;28;20378;-51
2022/07/13 05:15:27;;;;;;;1.15;0.73;;;;;;;17.19;69.30;101126.72;5031004;28;20032;-49
2022/07/13 05:17:54;;;;;;;2.50;0.93;;;;;;;17.40;68.29;101130.63;5031556;28;20025;-46
2022/07/13 05:20:20;;;;;;;1.67;0.73;;;;;;;17.47;68.41;101128.56;5030792;28;20025;-48
2022/07/13 05:22:46;;;;;;;1.20;0.65;;;;;;;17.53;68.18;101130.28;5014672;28;20084;-45
2022/07/13 05:25:12;;;;;;;1.23;0.82;;;;;;;17.69;67.45;101132.19;5029479;28;20021;-45
2022/07/13 05:27:38;;;;;;;0.80;0.65;;;;;;;17.67;67.45;101134.31;5032087;28;20022;-48
2022/07/13 05:30:05;;;;;;;1.88;0.90;;;;;;;17.55;67.99;101136.28;5030110;28;20025;-47
2022/07/13 05:32:31;;;;;;;0.50;0.50;;;;;;;17.54;67.82;101133.81;5031813;28;20025;-48
2022/07/13 05:34:57;;;;;;;1.13;0.47;;;;;;;17.56;67.94;101135.22;5029861;28;20478;-48
2022/07/13 05:37:24;;;;;;;1.02;0.63;;;;;;;17.67;67.13;101141.63;5032123;28;20022;-47
2022/07/13 05:39:50;;;;;;;0.98;0.57;;;;;;;17.77;66.92;101141.84;5028854;28;20037;-47
2022/07/13 05:42:16;;;;;;;1.60;0.80;;;;;;;17.66;67.64;101135.41;5030080;28;20572;-47
2022/07/13 05:44:42;;;;;;;1.65;0.57;;;;;;;17.64;67.75;101137.50;5031855;28;20034;-45
2022/07/13 05:47:08;;;;;;;0.60;0.40;;;;;;;17.73;67.15;101145.28;5016134;28;20028;-47
2022/07/13 05:49:35;;;;;;;0.90;0.70;;;;;;;17.69;67.65;101140.31;5020337;28;20474;-46
2022/07/13 05:52:01;;;;;;;0.85;0.60;;;;;;;17.57;68.43;101144.16;5031917;28;20109;-47
2022/07/13 05:54:27;;;;;;;1.00;0.60;;;;;;;17.70;68.04;101138.41;5030272;28;20564;-46
2022/07/13 05:56:53;;;;;;;6.18;0.90;;;;;;;17.66;68.85;101134.56;5031756;28;20433;-48
2022/07/13 05:59:20;;;;;;;0.95;0.65;;;;;;;17.71;68.27;101137.34;5029965;28;20032;-46
2022/07/13 06:01:46;;;;;;;1.25;0.80;;;;;;;17.78;67.47;101137.22;5030600;28;20045;-44
2022/07/13 06:04:12;;;;;;;0.77;0.60;;;;;;;17.77;67.70;101146.44;5030628;28;20623;-46
2022/07/13 06:06:38;;;;;;;2.20;0.73;;;;;;;17.58;67.24;101137.69;5031415;28;20046;-47
2022/07/13 06:09:05;;;;;;;0.93;0.55;;;;;;;17.44;67.71;101139.88;5029673;28;20099;-44
2022/07/13 06:11:31;;;;;;;1.00;0.60;;;;;;;17.42;67.93;101142.00;5031721;28;20471;-47
2022/07/13 06:13:57;;;;;;;0.77;0.50;;;;;;;17.48;67.56;101141.03;5029708;28;20038;-45
2022/07/13 06:16:23;;;;;;;0.50;0.43;;;;;;;17.36;67.89;101148.38;5031519;28;20099;-47
2022/07/13 06:18:49;;;;;;;0.50;0.50;;;;;;;17.36;67.90;101141.09;5030416;28;20022;-48
2022/07/13 06:21:15;;;;;;;0.95;0.55;;;;;;;17.41;67.56;101145.78;5031741;28;20578;-47
2022/07/13 06:23:42;;;;;;;0.40;0.40;;;;;;;17.51;67.06;101143.25;5031395;28;20048;-47
2022/07/13 06:26:08;;;;;;;0.60;0.57;;;;;;;17.35;67.78;101147.56;5029786;28;20038;-44
2022/07/13 06:28:34;;;;;;;0.35;0.35;;;;;;;17.14;68.61;101146.38;5031750;28;20021;-48
2022/07/13 06:31:00;;;;;;;0.32;0.20;;;;;;;17.22;68.13;101142.47;5030261;28;20022;-46
2022/07/13 06:33:27;;;;;;;0.45;0.30;;;;;;;17.06;69.09;101149.47;5031591;28;20025;-46
2022/07/13 06:35:53;;;;;;;0.73;0.57;;;;;;;17.00;69.25;101153.16;5029047;28;20090;-45
2022/07/13 06:38:19;;;;;;;0.50;0.40;;;;;;;17.03;69.49;101147.25;5029468;28;20026;-48
2022/07/13 06:40:49;;;;;;;0.68;0.28;;;;;;;17.01;69.65;101156.69;5031417;28;20025;-47
2022/07/13 06:43:16;;;;;;;1.80;0.50;;;;;;;17.08;69.00;101157.34;5029866;28;20393;-46
2022/07/13 06:45:42;;;;;;;0.60;0.40;;;;;;;17.07;69.38;101159.22;5034208;28;20056;-48
2022/07/13 06:48:08;;;;;;;0.40;0.20;;;;;;;17.07;69.47;101156.53;5031749;28;20100;-47
2022/07/13 06:50:34;;;;;;;0.38;0.30;;;;;;;17.12;69.00;101161.22;5034764;28;20504;-44
2022/07/13 06:53:02;;;;;;;0.30;0.20;;;;;;;16.82;70.40;101158.72;5032960;28;20082;-45
2022/07/13 06:55:29;;;;;;;0.50;0.50;;;;;;;16.92;70.05;101160.81;5034497;28;20034;-48
2022/07/13 06:57:55;;;;;;;0.30;0.30;;;;;;;16.97;69.96;101163.63;5031139;28;20030;-47
2022/07/13 07:00:21;;;;;;;0.25;0.25;;;;;;;16.97;69.92;101161.72;5034688;28;20029;-46
2022/07/13 07:02:48;;;;;;;0.30;0.30;;;;;;;17.01;69.37;101154.78;5033171;28;20037;-48
2022/07/13 07:05:14;;;;;;;0.38;0.20;;;;;;;17.07;69.65;101166.53;5034230;28;20022;-44
2022/07/13 07:07:41;;;;;;;0.22;0.20;;;;;;;17.03;69.77;101163.47;5033569;28;20478;-49
2022/07/13 07:10:09;;;;;;;0.30;0.30;;;;;;;17.08;69.31;101160.88;5034431;28;20044;-47
2022/07/13 07:12:36;;;;;;;0.20;0.20;;;;;;;17.05;69.81;101164.06;5031635;28;20036;-47
2022/07/13 07:15:03;;;;;;;0.28;0.28;;;;;;;17.02;69.51;101156.44;5034188;28;20105;-44
2022/07/13 07:17:29;;;;;;;0.10;0.10;;;;;;;16.97;69.79;101159.03;5033346;28;20033;-47
2022/07/13 07:20:00;;;;;;;0.20;0.20;;;;;;;16.83;70.34;101157.69;5032725;28;20029;-47
2022/07/13 07:22:26;;;;;;;0.20;0.10;;;;;;;16.82;70.66;101154.16;5033887;28;20029;-48
2022/07/13 07:24:53;;;;;;;0.20;0.20;;;;;;;16.99;69.81;101145.25;5031466;28;20439;-45
2022/07/13 07:27:19;;;;;;;0.30;0.20;;;;;;;16.87;70.01;101148.81;5034060;28;20048;-46
2022/07/13 07:29:46;;;;;;;0.13;0.13;;;;;;;16.86;70.11;101151.78;5032563;28;20022;-46
2022/07/13 07:32:12;;;;;;;0.30;0.30;;;;;;;16.81;70.23;101151.66;5034028;28;20076;-47
2022/07/13 07:34:38;;;;;;;0.13;0.13;;;;;;;16.91;69.90;101153.75;5032292;28;20466;-47
2022/07/13 07:37:05;;;;;;;0.28;0.10;;;;;;;16.94;70.38;101156.81;5033735;28;20117;-45
2022/07/13 07:39:31;;;;;;;0.28;0.15;;;;;;;16.96;70.21;101151.16;5031620;28;20025;-47
2022/07/13 07:41:57;;;;;;;0.30;0.22;;;;;;;16.83;71.03;101158.50;5033943;28;20025;-46
2022/07/13 07:44:23;;;;;;;0.20;0.20;;;;;;;16.85;70.69;101161.78;5030704;28;20037;-45
2022/07/13 07:46:50;;;;;;;0.20;0.20;;;;;;;16.81;70.86;101159.78;5033687;28;20040;-45
2022/07/13 07:49:16;;;;;;;0.52;0.20;;;;;;;16.74;71.53;101164.50;5030156;28;20030;-47
2022/07/13 07:51:43;;;;;;;0.20;0.20;;;;;;;16.61;72.24;101166.38;5014000;28;20505;-48
2022/07/13 07:54:09;;;;;;;0.20;0.20;;;;;;;16.66;72.07;101164.84;5018038;28;20076;-46
2022/07/13 07:56:35;;;;;;;0.20;0.13;;;;;;;16.89;71.05;101171.06;5032137;28;20493;-45
2022/07/13 07:59:01;;;;;;;0.57;0.20;;;;;;;16.75;71.77;101166.16;5031685;28;20033;-47
2022/07/13 08:01:28;;;;;;;0.38;0.22;;;;;;;16.80;71.36;101158.97;5033466;28;20048;-48
2022/07/13 08:03:55;;;;;;;0.50;0.20;;;;;;;16.72;72.04;101163.94;5031980;28;20096;-45
2022/07/13 08:06:21;;;;;;;0.98;0.30;;;;;;;16.73;71.81;101170.97;5026700;28;20045;-45
2022/07/13 08:08:48;;;;;;;1.15;0.30;;;;;;;16.79;72.00;101167.31;5015798;28;20041;-45
2022/07/13 08:11:17;;;;;;;0.30;0.30;;;;;;;16.90;71.19;101166.47;5029624;28;20466;-45
2022/07/13 08:13:46;;;;;;;0.45;0.20;;;;;;;16.76;71.41;101170.50;5032520;28;20033;-50
2022/07/13 08:16:14;;;;;;;0.57;0.20;;;;;;;16.78;70.90;101160.28;5032045;28;20057;-47
2022/07/13 08:18:40;;;;;;;0.13;0.13;;;;;;;16.73;70.95;101166.41;5012940;28;20434;-45
2022/07/13 08:21:07;;;;;;;0.32;0.20;;;;;;;16.82;70.73;101172.22;5012882;28;20475;-44
2022/07/13 08:23:51;;;;;;;2.05;0.20;;;;;;;16.83;70.82;101163.09;5030236;28;20041;-44
2022/07/13 08:26:21;;;;;;;0.20;0.20;;;;;;;16.89;70.14;101168.34;5031754;28;20032;-45
2022/07/13 08:28:48;;;;;;;0.30;0.30;;;;;;;16.86;70.59;101170.69;5012954;28;20072;-46
2022/07/13 08:31:14;;;;;;;0.68;0.20;;;;;;;16.80;70.86;101168.97;5012905;28;20034;-44
2022/07/13 08:39:12;;;;;;;0.30;0.30;;;;;;;16.82;71.28;101173.09;5013309;28;20036;-44
2022/07/13 08:41:39;;;;;;;0.20;0.20;;;;;;;16.86;71.04;101173.41;5013936;28;20509;-47
2022/07/13 08:44:06;;;;;;;0.20;0.20;;;;;;;16.74;71.88;101168.03;5029647;28;20143;-45
2022/07/13 08:46:33;;;;;;;0.47;0.22;;;;;;;16.85;71.27;101172.59;5030494;28;20379;-46
2022/07/13 08:49:01;;;;;;;0.98;0.20;;;;;;;16.92;70.64;101171.63;5032142;28;20029;-44
2022/07/13 08:51:30;;;;;;;0.25;0.20;;;;;;;16.97;70.94;101169.03;5030745;28;20072;-44
2022/07/13 08:53:56;;;;;;;0.60;0.20;;;;;;;17.13;70.19;101160.97;5032063;28;20056;-45
2022/07/13 08:56:23;;;;;;;0.20;0.20;;;;;;;17.00;71.05;101174.78;5029916;28;20033;-46
2022/07/13 08:58:50;;;;;;;0.17;0.17;;;;;;;16.96;71.36;101170.09;5030605;28;20022;-47
2022/07/13 09:01:16;;;;;;;0.30;0.30;;;;;;;16.82;71.95;101166.81;5032355;28;20033;-44
2022/07/13 09:03:43;;;;;;;0.20;0.20;;;;;;;16.87;71.98;101169.63;5030035;28;20567;-45
2022/07/13 09:06:09;;;;;;;0.70;0.30;;;;;;;16.76;72.59;101163.19;5031894;28;20183;-44
2022/07/13 09:08:43;;;;;;;0.40;0.40;;;;;;;16.57;73.59;101176.03;5030156;28;20025;-48
2022/07/13 09:11:10;;;;;;;1.65;0.43;;;;;;;16.65;73.98;101174.81;5032009;28;20041;-46
2022/07/13 09:13:40;;;;;;;0.50;0.32;;;;;;;16.74;73.40;101176.13;5030129;28;20026;-46
2022/07/13 09:16:23;;;;;;;0.65;0.40;;;;;;;16.74;73.09;101170.72;5031775;28;20393;-48
2022/07/13 09:18:52;;;;;;;0.85;0.47;;;;;;;16.71;73.18;101175.78;5029914;28;20650;-48
2022/07/13 09:21:20;;;;;;;0.15;0.13;;;;;;;16.56;73.35;101178.97;5012215;28;20160;-44
2022/07/13 09:23:53;;;;;;;0.20;0.20;;;;;;;16.68;72.57;101179.75;5011935;28;20092;-45
2022/07/13 09:26:21;;;;;;;0.22;0.20;;;;;;;16.56;72.70;101174.38;5031876;28;20075;-48
2022/07/13 09:28:49;;;;;;;0.98;0.25;;;;;;;16.55;72.65;101188.16;5030549;28;20109;-44
2022/07/13 09:31:17;;;;;;;0.22;0.22;;;;;;;16.61;72.07;101179.91;5027342;28;20553;-47
2022/07/13 09:33:45;;;;;;;0.25;0.25;;;;;;;16.71;71.27;101176.63;5030761;28;20470;-44
2022/07/13 09:36:12;;;;;;;0.43;0.30;;;;;;;16.59;71.33;101179.31;5030830;28;20393;-43
2022/07/13 09:38:42;;;;;;;0.20;0.20;;;;;;;16.58;71.20;101180.38;5031745;28;20029;-43
2022/07/13 09:41:25;;;;;;;0.65;0.30;;;;;;;16.63;70.79;101175.06;5029106;28;20030;-46
2022/07/13 09:46:52;;;;;;;0.30;0.30;;;;;;;16.52;71.39;101183.19;4997338;28;20120;-44
2022/07/13 09:49:28;;;;;;;0.47;0.20;;;;;;;16.53;71.31;101184.84;5020960;28;20037;-45
2022/07/13 09:51:59;;;;;;;0.20;0.20;;;;;;;16.49;71.97;101189.06;5031555;28;20025;-46
2022/07/13 09:54:30;;;;;;;0.73;0.30;;;;;;;16.39;72.30;101188.88;5029588;28;20060;-48
2022/07/13 09:56:59;;;;;;;1.00;0.38;;;;;;;16.47;72.57;101181.19;5029781;28;20470;-45
2022/07/13 09:59:26;;;;;;;0.40;0.40;;;;;;;16.30;73.07;101182.97;5031307;28;20022;-44
2022/07/13 10:01:53;;;;;;;0.95;0.50;;;;;;;16.38;73.07;101185.34;5030132;28;20049;-47
2022/07/13 10:04:21;;;;;;;0.22;0.22;;;;;;;16.40;73.27;101183.22;5031304;28;20029;-46
2022/07/13 10:06:47;;;;;;;0.40;0.40;;;;;;;16.43;73.03;101188.13;5030383;28;20502;-48
2022/07/13 10:09:14;;;;;;;0.98;0.40;;;;;;;16.37;73.42;101184.50;5029576;28;20033;-45
2022/07/13 10:11:41;;;;;;;1.55;0.55;;;;;;;16.37;73.22;101178.28;5029461;28;20254;-45
2022/07/13 10:14:08;;;;;;;0.40;0.30;;;;;;;16.39;73.32;101184.28;5030974;28;20517;-48
2022/07/13 10:16:35;;;;;;;0.35;0.30;;;;;;;16.43;73.07;101185.44;5030020;28;20051;-48
2022/07/13 10:19:07;;;;;;;0.88;0.28;;;;;;;16.40;73.50;101188.63;5031991;28;20040;-46
2022/07/13 10:21:54;;;;;;;0.30;0.30;;;;;;;16.46;73.67;101182.25;5033130;28;20037;-45
2022/07/13 10:24:21;;;;;;;0.20;0.20;;;;;;;16.30;74.65;101182.97;5034844;28;20116;-48
2022/07/13 10:26:48;;;;;;;0.30;0.30;;;;;;;16.25;74.98;101180.16;5032112;28;20029;-47
2022/07/13 10:29:15;;;;;;;0.30;0.30;;;;;;;16.14;75.39;101173.69;5034491;28;20095;-48
2022/07/13 10:31:43;;;;;;;0.75;0.30;;;;;;;16.29;74.71;101184.03;5032939;28;20048;-46
2022/07/13 10:34:11;;;;;;;0.20;0.20;;;;;;;16.29;74.72;101175.94;5034737;28;20100;-44
2022/07/13 10:36:52;;;;;;;0.57;0.20;;;;;;;16.33;74.71;101185.22;5033655;28;20152;-45
2022/07/13 10:39:21;;;;;;;0.43;0.30;;;;;;;16.38;74.48;101182.63;5034689;28;20056;-46
2022/07/13 10:42:13;;;;;;;0.30;0.20;;;;;;;16.39;74.76;101184.28;5031847;28;20041;-47
2022/07/13 10:44:43;;;;;;;1.17;0.20;;;;;;;16.43;74.22;101187.31;5014296;28;20088;-47
2022/07/13 10:47:15;;;;;;;0.38;0.38;;;;;;;16.42;74.19;101177.56;5032005;28;20029;-47
2022/07/13 10:49:47;;;;;;;0.22;0.20;;;;;;;16.44;74.27;101179.00;5034518;28;20382;-46
2022/07/13 10:52:23;;;;;;;0.77;0.30;;;;;;;16.24;75.54;101173.13;5033156;28;20037;-46
2022/07/13 10:57:31;;;;;;;0.65;0.57;;;;;;;16.30;75.25;101175.69;5032587;28;20037;-46
2022/07/13 11:00:03;;;;;;;0.50;0.20;;;;;;;16.34;75.14;101174.19;5033988;28;20378;-44
2022/07/13 11:02:43;;;;;;;0.17;0.10;;;;;;;16.47;74.61;101175.81;5033378;28;20032;-48
2022/07/13 11:05:12;;;;;;;0.45;0.30;;;;;;;16.36;75.55;101184.75;5033334;28;20026;-44
2022/07/13 11:07:49;;;;;;;1.13;0.25;;;;;;;16.44;75.64;101187.09;5033531;28;20067;-44
2022/07/13 11:10:28;;;;;;;0.20;0.20;;;;;;;16.31;75.97;101176.50;5033697;28;20022;-46
2022/07/13 11:13:14;;;;;;;0.30;0.10;;;;;;;16.18;76.75;101185.69;5033932;28;20108;-45
2022/07/13 11:15:54;;;;;;;0.57;0.30;;;;;;;16.17;76.98;101181.34;5032888;28;20067;-45
2022/07/13 11:18:24;;;;;;;0.20;0.10;;;;;;;16.20;77.20;101186.25;5034029;28;20057;-48
2022/07/13 11:20:58;;;;;;;0.10;0.10;;;;;;;15.99;77.31;101182.28;5032238;28;20060;-47
2022/07/13 11:27:00;;;;;;;0.17;0.10;;;;;;;16.12;77.18;101180.41;5028478;28;20500;-47
2022/07/13 11:29:55;;;;;;;0.82;0.30;;;;;;;16.15;76.77;101179.91;5021912;28;20025;-48
2022/07/13 11:32:22;;;;;;;0.20;0.20;;;;;;;16.24;76.46;101176.63;5037109;28;20090;-48
2022/07/13 11:34:48;;;;;;;0.32;0.10;;;;;;;16.23;76.05;101175.00;5025878;28;20041;-47
2022/07/13 11:37:14;;;;;;;0.20;0.17;;;;;;;16.19;75.74;101181.09;5021843;28;20072;-46
2022/07/13 11:39:40;;;;;;;0.13;0.10;;;;;;;16.21;75.60;101193.34;5033389;28;20026;-45
2022/07/13 11:42:07;;;;;;;0.32;0.10;;;;;;;16.36;75.23;101190.97;5047829;28;20480;-44